sensor_id;sensor_type;location;lat;lon;timestamp;P1;durP1;ratioP1;P2;durP2;ratioP2
24277;SDS011;12394;42.692;23.314;2023-04-23T00:00:38;6.20;;;4.10;;
24277;SDS011;12394;42.692;23.314;2023-04-23T00:03:08;6.80;;;5.07;;
24277;SDS011;12394;42.692;23.314;2023-04-23T00:05:35;5.67;;;5.07;;
24277;SDS011;12394;42.692;23.314;2023-04-23T00:08:01;5.53;;;4.50;;
24277;SDS011;12394;42.692;23.314;2023-04-23T00:10:27;7.20;;;4.60;;
24277;SDS011;12394;42.692;23.314;2023-04-23T00:12:53;12.80;;;4.53;;
24277;SDS011;12394;42.692;23.314;2023-04-23T00:15:19;5.77;;;3.93;;
24277;SDS011;12394;42.692;23.314;2023-04-23T00:17:46;7.77;;;4.27;;
24277;SDS011;12394;42.692;23.314;2023-04-23T00:20:12;6.87;;;4.47;;
24277;SDS011;12394;42.692;23.314;2023-04-23T00:22:37;6.23;;;4.87;;
24277;SDS011;12394;42.692;23.314;2023-04-23T00:25:03;5.80;;;5.13;;
24277;SDS011;12394;42.692;23.314;2023-04-23T00:27:29;8.17;;;5.13;;
24277;SDS011;12394;42.692;23.314;2023-04-23T00:29:54;8.43;;;6.77;;
24277;SDS011;12394;42.692;23.314;2023-04-23T00:32:20;5.30;;;4.20;;
24277;SDS011;12394;42.692;23.314;2023-04-23T00:34:46;8.13;;;4.87;;
24277;SDS011;12394;42.692;23.314;2023-04-23T00:37:13;6.87;;;4.70;;
24277;SDS011;12394;42.692;23.314;2023-04-23T00:39:39;6.20;;;4.57;;
24277;SDS011;12394;42.692;23.314;2023-04-23T00:42:05;5.43;;;4.80;;
24277;SDS011;12394;42.692;23.314;2023-04-23T00:44:36;6.33;;;4.80;;
24277;SDS011;12394;42.692;23.314;2023-04-23T00:47:05;7.27;;;4.97;;
24277;SDS011;12394;42.692;23.314;2023-04-23T00:49:32;12.33;;;5.57;;
24277;SDS011;12394;42.692;23.314;2023-04-23T00:51:58;9.03;;;5.47;;
24277;SDS011;12394;42.692;23.314;2023-04-23T00:54:24;8.17;;;6.13;;
24277;SDS011;12394;42.692;23.314;2023-04-23T00:56:50;8.20;;;5.70;;
24277;SDS011;12394;42.692;23.314;2023-04-23T00:59:16;13.40;;;6.90;;
24277;SDS011;12394;42.692;23.314;2023-04-23T01:01:42;11.53;;;7.03;;
24277;SDS011;12394;42.692;23.314;2023-04-23T01:04:09;10.57;;;7.07;;
24277;SDS011;12394;42.692;23.314;2023-04-23T01:06:38;9.47;;;7.73;;
24277;SDS011;12394;42.692;23.314;2023-04-23T01:09:05;9.80;;;7.33;;
24277;SDS011;12394;42.692;23.314;2023-04-23T01:11:33;10.83;;;7.57;;
24277;SDS011;12394;42.692;23.314;2023-04-23T01:14:03;13.33;;;7.57;;
24277;SDS011;12394;42.692;23.314;2023-04-23T01:16:28;12.27;;;7.63;;
24277;SDS011;12394;42.692;23.314;2023-04-23T01:18:54;14.07;;;6.23;;
24277;SDS011;12394;42.692;23.314;2023-04-23T01:21:20;9.47;;;6.53;;
24277;SDS011;12394;42.692;23.314;2023-04-23T01:23:46;14.30;;;6.47;;
24277;SDS011;12394;42.692;23.314;2023-04-23T01:26:11;10.50;;;6.83;;
24277;SDS011;12394;42.692;23.314;2023-04-23T01:28:38;9.67;;;6.63;;
24277;SDS011;12394;42.692;23.314;2023-04-23T01:31:05;8.37;;;6.87;;
24277;SDS011;12394;42.692;23.314;2023-04-23T01:33:31;10.53;;;6.47;;
24277;SDS011;12394;42.692;23.314;2023-04-23T01:35:57;9.30;;;7.53;;
24277;SDS011;12394;42.692;23.314;2023-04-23T01:38:24;12.30;;;7.67;;
24277;SDS011;12394;42.692;23.314;2023-04-23T01:40:52;12.77;;;8.33;;
24277;SDS011;12394;42.692;23.314;2023-04-23T01:43:18;12.87;;;9.10;;
24277;SDS011;12394;42.692;23.314;2023-04-23T01:45:44;12.87;;;8.97;;
24277;SDS011;12394;42.692;23.314;2023-04-23T01:48:10;11.70;;;8.17;;
24277;SDS011;12394;42.692;23.314;2023-04-23T01:50:35;10.10;;;8.93;;
24277;SDS011;12394;42.692;23.314;2023-04-23T01:53:01;14.23;;;8.83;;
24277;SDS011;12394;42.692;23.314;2023-04-23T01:55:26;11.90;;;8.47;;
24277;SDS011;12394;42.692;23.314;2023-04-23T01:57:52;13.27;;;8.83;;
24277;SDS011;12394;42.692;23.314;2023-04-23T02:00:17;10.33;;;8.73;;
24277;SDS011;12394;42.692;23.314;2023-04-23T02:02:43;10.80;;;7.87;;
24277;SDS011;12394;42.692;23.314;2023-04-23T02:05:18;17.20;;;8.97;;
24277;SDS011;12394;42.692;23.314;2023-04-23T02:07:44;13.80;;;9.00;;
24277;SDS011;12394;42.692;23.314;2023-04-23T02:10:11;15.70;;;8.33;;
24277;SDS011;12394;42.692;23.314;2023-04-23T02:12:37;13.43;;;8.93;;
24277;SDS011;12394;42.692;23.314;2023-04-23T02:15:03;13.03;;;8.17;;
24277;SDS011;12394;42.692;23.314;2023-04-23T02:17:30;12.43;;;8.63;;
24277;SDS011;12394;42.692;23.314;2023-04-23T02:19:55;10.20;;;8.23;;
24277;SDS011;12394;42.692;23.314;2023-04-23T02:22:21;12.23;;;8.97;;
24277;SDS011;12394;42.692;23.314;2023-04-23T02:24:49;13.93;;;7.90;;
24277;SDS011;12394;42.692;23.314;2023-04-23T02:27:15;18.63;;;9.03;;
24277;SDS011;12394;42.692;23.314;2023-04-23T02:29:41;13.40;;;9.00;;
24277;SDS011;12394;42.692;23.314;2023-04-23T02:32:06;13.70;;;9.70;;
24277;SDS011;12394;42.692;23.314;2023-04-23T02:34:32;12.13;;;8.80;;
24277;SDS011;12394;42.692;23.314;2023-04-23T02:36:57;14.97;;;9.57;;
24277;SDS011;12394;42.692;23.314;2023-04-23T02:39:23;10.83;;;9.00;;
24277;SDS011;12394;42.692;23.314;2023-04-23T02:41:48;20.50;;;9.20;;
24277;SDS011;12394;42.692;23.314;2023-04-23T02:44:13;13.63;;;8.33;;
24277;SDS011;12394;42.692;23.314;2023-04-23T02:46:39;13.37;;;9.20;;
24277;SDS011;12394;42.692;23.314;2023-04-23T02:49:04;13.80;;;8.90;;
24277;SDS011;12394;42.692;23.314;2023-04-23T02:51:30;15.87;;;8.57;;
24277;SDS011;12394;42.692;23.314;2023-04-23T02:53:56;13.00;;;9.23;;
24277;SDS011;12394;42.692;23.314;2023-04-23T02:56:22;15.73;;;9.10;;
24277;SDS011;12394;42.692;23.314;2023-04-23T02:58:47;14.30;;;8.70;;
24277;SDS011;12394;42.692;23.314;2023-04-23T03:01:13;10.93;;;8.57;;
24277;SDS011;12394;42.692;23.314;2023-04-23T03:03:38;13.53;;;8.90;;
24277;SDS011;12394;42.692;23.314;2023-04-23T03:06:04;13.50;;;9.57;;
24277;SDS011;12394;42.692;23.314;2023-04-23T03:08:31;16.70;;;9.53;;
24277;SDS011;12394;42.692;23.314;2023-04-23T03:10:56;14.00;;;9.27;;
24277;SDS011;12394;42.692;23.314;2023-04-23T03:13:21;13.90;;;8.80;;
24277;SDS011;12394;42.692;23.314;2023-04-23T03:15:47;14.53;;;9.87;;
24277;SDS011;12394;42.692;23.314;2023-04-23T03:18:14;14.77;;;10.03;;
24277;SDS011;12394;42.692;23.314;2023-04-23T03:20:39;14.07;;;9.70;;
24277;SDS011;12394;42.692;23.314;2023-04-23T03:23:04;13.43;;;9.80;;
24277;SDS011;12394;42.692;23.314;2023-04-23T03:25:31;17.73;;;9.53;;
24277;SDS011;12394;42.692;23.314;2023-04-23T03:27:56;12.27;;;9.17;;
24277;SDS011;12394;42.692;23.314;2023-04-23T03:30:22;13.10;;;10.27;;
24277;SDS011;12394;42.692;23.314;2023-04-23T03:32:48;11.57;;;9.00;;
24277;SDS011;12394;42.692;23.314;2023-04-23T03:35:14;11.60;;;8.67;;
24277;SDS011;12394;42.692;23.314;2023-04-23T03:37:40;16.83;;;9.23;;
24277;SDS011;12394;42.692;23.314;2023-04-23T03:40:06;11.97;;;9.17;;
24277;SDS011;12394;42.692;23.314;2023-04-23T03:42:32;15.13;;;9.43;;
24277;SDS011;12394;42.692;23.314;2023-04-23T03:44:58;13.87;;;8.87;;
24277;SDS011;12394;42.692;23.314;2023-04-23T03:47:24;14.00;;;8.67;;
24277;SDS011;12394;42.692;23.314;2023-04-23T03:49:50;11.87;;;9.43;;
24277;SDS011;12394;42.692;23.314;2023-04-23T03:52:16;11.10;;;9.40;;
24277;SDS011;12394;42.692;23.314;2023-04-23T03:54:42;17.33;;;9.03;;
24277;SDS011;12394;42.692;23.314;2023-04-23T03:57:07;11.67;;;8.83;;
24277;SDS011;12394;42.692;23.314;2023-04-23T03:59:33;18.73;;;9.70;;
24277;SDS011;12394;42.692;23.314;2023-04-23T04:01:58;15.70;;;8.80;;
24277;SDS011;12394;42.692;23.314;2023-04-23T04:04:24;13.97;;;8.60;;
24277;SDS011;12394;42.692;23.314;2023-04-23T04:06:49;17.90;;;12.63;;
24277;SDS011;12394;42.692;23.314;2023-04-23T04:09:15;16.93;;;9.23;;
24277;SDS011;12394;42.692;23.314;2023-04-23T04:11:41;13.27;;;8.63;;
24277;SDS011;12394;42.692;23.314;2023-04-23T04:14:06;11.53;;;8.17;;
24277;SDS011;12394;42.692;23.314;2023-04-23T04:16:31;11.17;;;8.67;;
24277;SDS011;12394;42.692;23.314;2023-04-23T04:18:57;16.77;;;8.87;;
24277;SDS011;12394;42.692;23.314;2023-04-23T04:21:22;15.27;;;9.00;;
24277;SDS011;12394;42.692;23.314;2023-04-23T04:23:48;12.70;;;8.87;;
24277;SDS011;12394;42.692;23.314;2023-04-23T04:26:13;13.47;;;7.70;;
24277;SDS011;12394;42.692;23.314;2023-04-23T04:28:39;11.13;;;8.30;;
24277;SDS011;12394;42.692;23.314;2023-04-23T04:31:05;11.13;;;7.97;;
24277;SDS011;12394;42.692;23.314;2023-04-23T04:33:31;14.87;;;8.50;;
24277;SDS011;12394;42.692;23.314;2023-04-23T04:35:57;12.57;;;8.10;;
24277;SDS011;12394;42.692;23.314;2023-04-23T04:38:24;14.23;;;9.60;;
24277;SDS011;12394;42.692;23.314;2023-04-23T04:40:50;12.23;;;9.10;;
24277;SDS011;12394;42.692;23.314;2023-04-23T04:43:15;11.83;;;9.40;;
24277;SDS011;12394;42.692;23.314;2023-04-23T04:45:41;12.97;;;9.53;;
24277;SDS011;12394;42.692;23.314;2023-04-23T04:48:06;9.83;;;7.70;;
24277;SDS011;12394;42.692;23.314;2023-04-23T04:50:32;11.77;;;8.67;;
24277;SDS011;12394;42.692;23.314;2023-04-23T04:52:58;13.33;;;8.73;;
24277;SDS011;12394;42.692;23.314;2023-04-23T04:55:23;16.10;;;8.30;;
24277;SDS011;12394;42.692;23.314;2023-04-23T04:57:48;10.53;;;8.43;;
24277;SDS011;12394;42.692;23.314;2023-04-23T05:00:18;16.67;;;9.30;;
24277;SDS011;12394;42.692;23.314;2023-04-23T05:02:47;11.90;;;8.60;;
24277;SDS011;12394;42.692;23.314;2023-04-23T05:05:31;13.23;;;8.40;;
24277;SDS011;12394;42.692;23.314;2023-04-23T05:07:58;10.27;;;8.57;;
24277;SDS011;12394;42.692;23.314;2023-04-23T05:10:26;11.03;;;8.50;;
24277;SDS011;12394;42.692;23.314;2023-04-23T05:12:52;13.77;;;8.70;;
24277;SDS011;12394;42.692;23.314;2023-04-23T05:15:17;13.70;;;8.77;;
24277;SDS011;12394;42.692;23.314;2023-04-23T05:17:43;11.03;;;8.60;;
24277;SDS011;12394;42.692;23.314;2023-04-23T05:20:09;12.97;;;7.80;;
24277;SDS011;12394;42.692;23.314;2023-04-23T05:22:38;9.90;;;7.37;;
24277;SDS011;12394;42.692;23.314;2023-04-23T05:25:07;10.30;;;8.17;;
24277;SDS011;12394;42.692;23.314;2023-04-23T05:27:34;14.63;;;8.53;;
24277;SDS011;12394;42.692;23.314;2023-04-23T05:30:03;13.73;;;10.03;;
24277;SDS011;12394;42.692;23.314;2023-04-23T05:32:31;15.37;;;10.27;;
24277;SDS011;12394;42.692;23.314;2023-04-23T05:34:56;12.93;;;9.13;;
24277;SDS011;12394;42.692;23.314;2023-04-23T05:37:23;13.53;;;9.70;;
24277;SDS011;12394;42.692;23.314;2023-04-23T05:39:50;14.37;;;10.47;;
24277;SDS011;12394;42.692;23.314;2023-04-23T05:42:15;18.13;;;10.23;;
24277;SDS011;12394;42.692;23.314;2023-04-23T05:44:41;11.83;;;8.73;;
24277;SDS011;12394;42.692;23.314;2023-04-23T05:47:07;15.40;;;9.43;;
24277;SDS011;12394;42.692;23.314;2023-04-23T05:49:34;16.90;;;9.33;;
24277;SDS011;12394;42.692;23.314;2023-04-23T05:51:59;14.33;;;10.97;;
24277;SDS011;12394;42.692;23.314;2023-04-23T05:54:26;19.20;;;9.80;;
24277;SDS011;12394;42.692;23.314;2023-04-23T05:56:52;10.87;;;8.20;;
24277;SDS011;12394;42.692;23.314;2023-04-23T05:59:17;10.63;;;7.90;;
24277;SDS011;12394;42.692;23.314;2023-04-23T06:01:43;9.03;;;7.47;;
24277;SDS011;12394;42.692;23.314;2023-04-23T06:04:08;12.13;;;8.60;;
24277;SDS011;12394;42.692;23.314;2023-04-23T06:06:33;10.43;;;7.90;;
24277;SDS011;12394;42.692;23.314;2023-04-23T06:08:59;11.30;;;7.80;;
24277;SDS011;12394;42.692;23.314;2023-04-23T06:11:24;9.97;;;6.87;;
24277;SDS011;12394;42.692;23.314;2023-04-23T06:13:50;7.73;;;6.43;;
24277;SDS011;12394;42.692;23.314;2023-04-23T06:16:16;11.80;;;6.43;;
24277;SDS011;12394;42.692;23.314;2023-04-23T06:18:41;12.50;;;6.90;;
24277;SDS011;12394;42.692;23.314;2023-04-23T06:21:06;14.43;;;6.70;;
24277;SDS011;12394;42.692;23.314;2023-04-23T06:23:33;8.23;;;6.50;;
24277;SDS011;12394;42.692;23.314;2023-04-23T06:25:58;8.40;;;6.93;;
24277;SDS011;12394;42.692;23.314;2023-04-23T06:28:24;11.70;;;6.67;;
24277;SDS011;12394;42.692;23.314;2023-04-23T06:30:50;9.23;;;7.00;;
24277;SDS011;12394;42.692;23.314;2023-04-23T06:33:16;10.33;;;7.90;;
24277;SDS011;12394;42.692;23.314;2023-04-23T06:35:42;8.57;;;6.60;;
24277;SDS011;12394;42.692;23.314;2023-04-23T06:38:07;12.43;;;7.13;;
24277;SDS011;12394;42.692;23.314;2023-04-23T06:40:34;9.67;;;6.43;;
24277;SDS011;12394;42.692;23.314;2023-04-23T06:42:59;7.50;;;6.50;;
24277;SDS011;12394;42.692;23.314;2023-04-23T06:45:28;10.73;;;6.53;;
24277;SDS011;12394;42.692;23.314;2023-04-23T06:47:56;11.00;;;6.53;;
24277;SDS011;12394;42.692;23.314;2023-04-23T06:50:21;10.33;;;6.40;;
24277;SDS011;12394;42.692;23.314;2023-04-23T06:52:47;14.23;;;6.40;;
24277;SDS011;12394;42.692;23.314;2023-04-23T06:55:12;12.70;;;6.43;;
24277;SDS011;12394;42.692;23.314;2023-04-23T06:57:38;8.87;;;6.50;;
24277;SDS011;12394;42.692;23.314;2023-04-23T07:00:03;7.17;;;6.13;;
24277;SDS011;12394;42.692;23.314;2023-04-23T07:02:33;14.73;;;6.80;;
24277;SDS011;12394;42.692;23.314;2023-04-23T07:04:58;10.33;;;6.93;;
24277;SDS011;12394;42.692;23.314;2023-04-23T07:07:24;9.77;;;6.80;;
24277;SDS011;12394;42.692;23.314;2023-04-23T07:09:50;14.07;;;6.87;;
24277;SDS011;12394;42.692;23.314;2023-04-23T07:12:15;9.43;;;7.00;;
24277;SDS011;12394;42.692;23.314;2023-04-23T07:14:40;15.43;;;7.23;;
24277;SDS011;12394;42.692;23.314;2023-04-23T07:17:07;8.43;;;6.53;;
24277;SDS011;12394;42.692;23.314;2023-04-23T07:19:32;10.67;;;6.50;;
24277;SDS011;12394;42.692;23.314;2023-04-23T07:21:57;9.20;;;6.43;;
24277;SDS011;12394;42.692;23.314;2023-04-23T07:24:23;9.97;;;6.43;;
24277;SDS011;12394;42.692;23.314;2023-04-23T07:26:50;11.27;;;6.00;;
24277;SDS011;12394;42.692;23.314;2023-04-23T07:29:16;13.27;;;6.60;;
24277;SDS011;12394;42.692;23.314;2023-04-23T07:31:41;7.80;;;6.47;;
24277;SDS011;12394;42.692;23.314;2023-04-23T07:34:07;9.40;;;6.07;;
24277;SDS011;12394;42.692;23.314;2023-04-23T07:36:52;9.83;;;6.07;;
24277;SDS011;12394;42.692;23.314;2023-04-23T07:39:20;24.23;;;15.77;;
24277;SDS011;12394;42.692;23.314;2023-04-23T07:41:45;9.37;;;7.23;;
24277;SDS011;12394;42.692;23.314;2023-04-23T07:44:11;9.83;;;7.07;;
24277;SDS011;12394;42.692;23.314;2023-04-23T07:46:36;9.00;;;6.70;;
24277;SDS011;12394;42.692;23.314;2023-04-23T07:49:02;8.80;;;6.10;;
24277;SDS011;12394;42.692;23.314;2023-04-23T07:51:27;7.27;;;5.27;;
24277;SDS011;12394;42.692;23.314;2023-04-23T07:53:52;6.87;;;5.70;;
24277;SDS011;12394;42.692;23.314;2023-04-23T07:56:21;12.17;;;6.30;;
24277;SDS011;12394;42.692;23.314;2023-04-23T07:58:48;13.47;;;6.20;;
24277;SDS011;12394;42.692;23.314;2023-04-23T08:01:14;8.53;;;5.97;;
24277;SDS011;12394;42.692;23.314;2023-04-23T08:03:40;7.27;;;5.77;;
24277;SDS011;12394;42.692;23.314;2023-04-23T08:06:06;8.60;;;6.00;;
24277;SDS011;12394;42.692;23.314;2023-04-23T08:08:31;7.33;;;5.80;;
24277;SDS011;12394;42.692;23.314;2023-04-23T08:10:57;8.20;;;5.90;;
24277;SDS011;12394;42.692;23.314;2023-04-23T08:13:22;6.17;;;5.40;;
24277;SDS011;12394;42.692;23.314;2023-04-23T08:15:48;7.80;;;5.67;;
24277;SDS011;12394;42.692;23.314;2023-04-23T08:18:13;6.97;;;6.07;;
24277;SDS011;12394;42.692;23.314;2023-04-23T08:20:39;10.40;;;5.57;;
24277;SDS011;12394;42.692;23.314;2023-04-23T08:23:05;17.73;;;6.27;;
24277;SDS011;12394;42.692;23.314;2023-04-23T08:25:31;12.57;;;6.37;;
24277;SDS011;12394;42.692;23.314;2023-04-23T08:27:56;6.13;;;5.43;;
24277;SDS011;12394;42.692;23.314;2023-04-23T08:30:22;8.37;;;5.97;;
24277;SDS011;12394;42.692;23.314;2023-04-23T08:32:49;6.70;;;5.60;;
24277;SDS011;12394;42.692;23.314;2023-04-23T08:35:20;8.80;;;5.73;;
24277;SDS011;12394;42.692;23.314;2023-04-23T08:37:46;9.40;;;5.27;;
24277;SDS011;12394;42.692;23.314;2023-04-23T08:40:11;10.13;;;5.10;;
24277;SDS011;12394;42.692;23.314;2023-04-23T08:42:48;10.27;;;6.33;;
24277;SDS011;12394;42.692;23.314;2023-04-23T08:45:20;7.83;;;6.10;;
24277;SDS011;12394;42.692;23.314;2023-04-23T08:47:46;8.27;;;6.60;;
24277;SDS011;12394;42.692;23.314;2023-04-23T08:50:13;11.87;;;6.17;;
24277;SDS011;12394;42.692;23.314;2023-04-23T08:52:48;8.97;;;6.00;;
24277;SDS011;12394;42.692;23.314;2023-04-23T08:55:16;8.43;;;6.17;;
24277;SDS011;12394;42.692;23.314;2023-04-23T08:57:43;8.23;;;6.00;;
24277;SDS011;12394;42.692;23.314;2023-04-23T09:00:10;10.10;;;6.03;;
24277;SDS011;12394;42.692;23.314;2023-04-23T09:02:41;7.83;;;6.10;;
24277;SDS011;12394;42.692;23.314;2023-04-23T09:05:08;8.53;;;5.80;;
24277;SDS011;12394;42.692;23.314;2023-04-23T09:07:34;8.10;;;5.80;;
24277;SDS011;12394;42.692;23.314;2023-04-23T09:10:00;11.73;;;6.07;;
24277;SDS011;12394;42.692;23.314;2023-04-23T09:12:26;9.23;;;5.60;;
24277;SDS011;12394;42.692;23.314;2023-04-23T09:14:54;6.70;;;5.40;;
24277;SDS011;12394;42.692;23.314;2023-04-23T09:17:20;11.27;;;5.70;;
24277;SDS011;12394;42.692;23.314;2023-04-23T09:19:51;8.93;;;6.20;;
24277;SDS011;12394;42.692;23.314;2023-04-23T09:25:11;8.40;;;4.80;;
24277;SDS011;12394;42.692;23.314;2023-04-23T09:27:38;9.03;;;5.67;;
24277;SDS011;12394;42.692;23.314;2023-04-23T09:30:04;12.20;;;6.10;;
24277;SDS011;12394;42.692;23.314;2023-04-23T09:32:32;9.47;;;5.80;;
24277;SDS011;12394;42.692;23.314;2023-04-23T09:35:00;10.30;;;9.13;;
24277;SDS011;12394;42.692;23.314;2023-04-23T09:37:28;11.73;;;6.10;;
24277;SDS011;12394;42.692;23.314;2023-04-23T09:39:53;10.13;;;6.77;;
24277;SDS011;12394;42.692;23.314;2023-04-23T09:42:23;11.77;;;8.43;;
24277;SDS011;12394;42.692;23.314;2023-04-23T09:44:56;7.50;;;5.17;;
24277;SDS011;12394;42.692;23.314;2023-04-23T09:47:48;5.43;;;4.80;;
24277;SDS011;12394;42.692;23.314;2023-04-23T09:50:15;6.17;;;5.40;;
24277;SDS011;12394;42.692;23.314;2023-04-23T09:52:41;11.93;;;8.87;;
24277;SDS011;12394;42.692;23.314;2023-04-23T09:55:07;10.43;;;8.80;;
24277;SDS011;12394;42.692;23.314;2023-04-23T09:57:50;7.43;;;5.73;;
24277;SDS011;12394;42.692;23.314;2023-04-23T10:00:17;9.87;;;7.13;;
24277;SDS011;12394;42.692;23.314;2023-04-23T10:02:45;10.00;;;7.77;;
24277;SDS011;12394;42.692;23.314;2023-04-23T10:05:13;7.33;;;5.20;;
24277;SDS011;12394;42.692;23.314;2023-04-23T10:07:43;9.30;;;6.40;;
24277;SDS011;12394;42.692;23.314;2023-04-23T10:10:15;9.40;;;5.53;;
24277;SDS011;12394;42.692;23.314;2023-04-23T10:12:42;9.23;;;5.70;;
24277;SDS011;12394;42.692;23.314;2023-04-23T10:15:08;9.60;;;6.30;;
24277;SDS011;12394;42.692;23.314;2023-04-23T10:17:38;10.47;;;5.20;;
24277;SDS011;12394;42.692;23.314;2023-04-23T10:20:05;8.13;;;5.50;;
24277;SDS011;12394;42.692;23.314;2023-04-23T10:22:31;6.87;;;5.90;;
24277;SDS011;12394;42.692;23.314;2023-04-23T10:24:59;11.47;;;5.70;;
24277;SDS011;12394;42.692;23.314;2023-04-23T10:27:28;11.23;;;5.63;;
24277;SDS011;12394;42.692;23.314;2023-04-23T10:29:58;8.13;;;5.70;;
24277;SDS011;12394;42.692;23.314;2023-04-23T10:32:24;7.63;;;5.17;;
24277;SDS011;12394;42.692;23.314;2023-04-23T10:34:51;5.87;;;5.27;;
24277;SDS011;12394;42.692;23.314;2023-04-23T10:37:17;6.10;;;4.97;;
24277;SDS011;12394;42.692;23.314;2023-04-23T10:39:44;6.30;;;4.53;;
24277;SDS011;12394;42.692;23.314;2023-04-23T10:42:13;9.50;;;5.37;;
24277;SDS011;12394;42.692;23.314;2023-04-23T10:44:41;8.47;;;5.00;;
24277;SDS011;12394;42.692;23.314;2023-04-23T10:47:10;8.33;;;5.80;;
24277;SDS011;12394;42.692;23.314;2023-04-23T10:49:38;5.80;;;4.67;;
24277;SDS011;12394;42.692;23.314;2023-04-23T10:52:07;10.23;;;6.97;;
24277;SDS011;12394;42.692;23.314;2023-04-23T10:54:33;8.23;;;5.30;;
24277;SDS011;12394;42.692;23.314;2023-04-23T10:57:04;6.03;;;5.43;;
24277;SDS011;12394;42.692;23.314;2023-04-23T10:59:31;8.20;;;5.20;;
24277;SDS011;12394;42.692;23.314;2023-04-23T11:01:58;8.57;;;5.10;;
24277;SDS011;12394;42.692;23.314;2023-04-23T11:04:31;7.63;;;5.23;;
24277;SDS011;12394;42.692;23.314;2023-04-23T11:07:07;9.33;;;6.53;;
24277;SDS011;12394;42.692;23.314;2023-04-23T11:12:13;7.70;;;4.70;;
24277;SDS011;12394;42.692;23.314;2023-04-23T11:20:11;8.03;;;4.90;;
24277;SDS011;12394;42.692;23.314;2023-04-23T11:22:38;7.53;;;4.10;;
24277;SDS011;12394;42.692;23.314;2023-04-23T11:25:09;5.77;;;3.90;;
24277;SDS011;12394;42.692;23.314;2023-04-23T11:27:39;10.37;;;5.10;;
24277;SDS011;12394;42.692;23.314;2023-04-23T11:30:11;7.03;;;4.33;;
24277;SDS011;12394;42.692;23.314;2023-04-23T11:32:39;6.33;;;4.37;;
24277;SDS011;12394;42.692;23.314;2023-04-23T11:35:06;6.67;;;4.30;;
24277;SDS011;12394;42.692;23.314;2023-04-23T11:37:37;5.70;;;4.03;;
24277;SDS011;12394;42.692;23.314;2023-04-23T11:40:07;6.87;;;3.93;;
24277;SDS011;12394;42.692;23.314;2023-04-23T11:42:41;5.73;;;4.63;;
24277;SDS011;12394;42.692;23.314;2023-04-23T11:47:46;6.27;;;4.50;;
24277;SDS011;12394;42.692;23.314;2023-04-23T11:50:24;5.23;;;3.73;;
24277;SDS011;12394;42.692;23.314;2023-04-23T11:52:51;7.60;;;4.90;;
24277;SDS011;12394;42.692;23.314;2023-04-23T11:55:17;9.60;;;4.97;;
24277;SDS011;12394;42.692;23.314;2023-04-23T11:57:44;6.50;;;4.20;;
24277;SDS011;12394;42.692;23.314;2023-04-23T12:00:20;8.70;;;4.07;;
24277;SDS011;12394;42.692;23.314;2023-04-23T12:07:47;7.67;;;4.27;;
24277;SDS011;12394;42.692;23.314;2023-04-23T12:10:19;8.27;;;5.67;;
24277;SDS011;12394;42.692;23.314;2023-04-23T12:12:52;7.03;;;4.30;;
24277;SDS011;12394;42.692;23.314;2023-04-23T12:15:17;12.17;;;9.80;;
24277;SDS011;12394;42.692;23.314;2023-04-23T12:17:50;7.90;;;4.07;;
24277;SDS011;12394;42.692;23.314;2023-04-23T12:20:18;6.07;;;4.70;;
24277;SDS011;12394;42.692;23.314;2023-04-23T12:22:45;6.20;;;4.50;;
24277;SDS011;12394;42.692;23.314;2023-04-23T12:25:10;10.30;;;4.17;;
24277;SDS011;12394;42.692;23.314;2023-04-23T12:27:39;6.47;;;4.53;;
24277;SDS011;12394;42.692;23.314;2023-04-23T12:30:07;5.00;;;4.47;;
24277;SDS011;12394;42.692;23.314;2023-04-23T12:32:33;5.27;;;4.57;;
24277;SDS011;12394;42.692;23.314;2023-04-23T12:35:36;5.93;;;4.63;;
24277;SDS011;12394;42.692;23.314;2023-04-23T12:38:24;6.97;;;4.63;;
24277;SDS011;12394;42.692;23.314;2023-04-23T12:41:10;5.03;;;3.93;;
24277;SDS011;12394;42.692;23.314;2023-04-23T12:43:35;7.20;;;4.50;;
24277;SDS011;12394;42.692;23.314;2023-04-23T12:46:01;8.50;;;4.77;;
24277;SDS011;12394;42.692;23.314;2023-04-23T12:48:29;5.67;;;4.40;;
24277;SDS011;12394;42.692;23.314;2023-04-23T12:50:54;7.17;;;4.07;;
24277;SDS011;12394;42.692;23.314;2023-04-23T12:53:20;6.17;;;4.00;;
24277;SDS011;12394;42.692;23.314;2023-04-23T12:55:45;6.93;;;3.93;;
24277;SDS011;12394;42.692;23.314;2023-04-23T12:58:12;7.97;;;4.27;;
24277;SDS011;12394;42.692;23.314;2023-04-23T13:00:37;6.57;;;3.97;;
24277;SDS011;12394;42.692;23.314;2023-04-23T13:03:03;6.27;;;3.77;;
24277;SDS011;12394;42.692;23.314;2023-04-23T13:05:28;6.40;;;3.43;;
24277;SDS011;12394;42.692;23.314;2023-04-23T13:07:54;5.50;;;3.67;;
24277;SDS011;12394;42.692;23.314;2023-04-23T13:10:20;5.43;;;3.90;;
24277;SDS011;12394;42.692;23.314;2023-04-23T13:12:45;6.63;;;3.83;;
24277;SDS011;12394;42.692;23.314;2023-04-23T13:15:10;4.73;;;3.40;;
24277;SDS011;12394;42.692;23.314;2023-04-23T13:17:39;6.03;;;3.97;;
24277;SDS011;12394;42.692;23.314;2023-04-23T13:20:04;7.57;;;3.50;;
24277;SDS011;12394;42.692;23.314;2023-04-23T13:22:30;10.57;;;4.23;;
24277;SDS011;12394;42.692;23.314;2023-04-23T13:24:57;4.63;;;3.50;;
24277;SDS011;12394;42.692;23.314;2023-04-23T13:27:25;4.87;;;3.23;;
24277;SDS011;12394;42.692;23.314;2023-04-23T13:29:52;5.13;;;3.77;;
24277;SDS011;12394;42.692;23.314;2023-04-23T13:32:18;5.80;;;3.60;;
24277;SDS011;12394;42.692;23.314;2023-04-23T13:34:43;5.87;;;4.20;;
24277;SDS011;12394;42.692;23.314;2023-04-23T13:37:08;6.63;;;4.20;;
24277;SDS011;12394;42.692;23.314;2023-04-23T13:39:35;4.20;;;3.80;;
24277;SDS011;12394;42.692;23.314;2023-04-23T13:42:01;5.90;;;3.77;;
24277;SDS011;12394;42.692;23.314;2023-04-23T13:44:28;6.73;;;4.63;;
24277;SDS011;12394;42.692;23.314;2023-04-23T13:46:54;8.60;;;4.00;;
24277;SDS011;12394;42.692;23.314;2023-04-23T13:49:22;5.80;;;3.97;;
24277;SDS011;12394;42.692;23.314;2023-04-23T13:51:48;7.30;;;3.37;;
24277;SDS011;12394;42.692;23.314;2023-04-23T13:54:14;4.13;;;3.40;;
24277;SDS011;12394;42.692;23.314;2023-04-23T13:56:39;5.47;;;3.63;;
24277;SDS011;12394;42.692;23.314;2023-04-23T13:59:05;5.53;;;3.67;;
24277;SDS011;12394;42.692;23.314;2023-04-23T14:01:30;8.63;;;3.80;;
24277;SDS011;12394;42.692;23.314;2023-04-23T14:03:56;5.20;;;3.43;;
24277;SDS011;12394;42.692;23.314;2023-04-23T14:06:21;6.40;;;3.30;;
24277;SDS011;12394;42.692;23.314;2023-04-23T14:08:47;6.90;;;3.90;;
24277;SDS011;12394;42.692;23.314;2023-04-23T14:11:12;7.83;;;3.57;;
24277;SDS011;12394;42.692;23.314;2023-04-23T14:13:38;7.63;;;4.10;;
24277;SDS011;12394;42.692;23.314;2023-04-23T14:16:03;4.80;;;3.40;;
24277;SDS011;12394;42.692;23.314;2023-04-23T14:18:29;7.10;;;3.30;;
24277;SDS011;12394;42.692;23.314;2023-04-23T14:20:54;7.90;;;3.17;;
24277;SDS011;12394;42.692;23.314;2023-04-23T14:26:07;7.40;;;3.70;;
24277;SDS011;12394;42.692;23.314;2023-04-23T14:31:00;5.37;;;3.93;;
24277;SDS011;12394;42.692;23.314;2023-04-23T14:33:26;7.97;;;3.30;;
24277;SDS011;12394;42.692;23.314;2023-04-23T14:35:51;4.80;;;3.37;;
24277;SDS011;12394;42.692;23.314;2023-04-23T14:38:17;6.70;;;3.30;;
24277;SDS011;12394;42.692;23.314;2023-04-23T14:40:43;7.03;;;3.43;;
24277;SDS011;12394;42.692;23.314;2023-04-23T14:43:08;5.10;;;3.20;;
24277;SDS011;12394;42.692;23.314;2023-04-23T14:45:34;3.60;;;3.13;;
24277;SDS011;12394;42.692;23.314;2023-04-23T14:47:59;5.17;;;3.47;;
24277;SDS011;12394;42.692;23.314;2023-04-23T14:50:25;5.00;;;3.40;;